createdAt,value
2018-01-04T00:00:19.162Z,0.4
2018-01-04T00:02:18.901Z,0.7
2018-01-04T00:04:18.649Z,0.3
2018-01-04T00:06:19.161Z,0.6
2018-01-04T00:08:18.926Z,0.4
2018-01-04T00:10:19.165Z,0.3
2018-01-04T00:12:18.918Z,0.8
2018-01-04T00:14:18.649Z,0.6
2018-01-04T00:16:19.010Z,0.7
2018-01-04T00:18:18.800Z,0.6
2018-01-04T00:20:18.532Z,0.6
2018-01-04T00:22:19.298Z,0.3
2018-01-04T00:24:19.030Z,0.5
2018-01-04T00:26:19.119Z,0.3
2018-01-04T00:28:18.868Z,0.6
2018-01-04T00:30:18.605Z,0.5
2018-01-04T00:32:19.373Z,0.8
2018-01-04T00:34:19.131Z,0.3
2018-01-04T00:36:19.237Z,0.8
2018-01-04T00:38:18.961Z,1.9
2018-01-04T00:40:19.207Z,0.4
2018-01-04T00:42:18.970Z,0.6
2018-01-04T00:44:18.727Z,0.4
2018-01-04T00:46:19.307Z,0.6
2018-01-04T00:48:19.059Z,0.4
2018-01-04T00:50:18.909Z,0.5
2018-01-04T00:52:18.644Z,1.1
2018-01-04T00:54:19.396Z,0.6
2018-01-04T00:56:18.756Z,0.3
2018-01-04T00:58:18.514Z,0.4
2018-01-04T01:00:19.411Z,0.5
2018-01-04T01:02:19.173Z,1
2018-01-04T01:04:18.927Z,0.8
2018-01-04T01:06:18.489Z,0.3
2018-01-04T01:08:19.250Z,3.3
2018-01-04T01:10:19.471Z,1.6
2018-01-04T01:12:19.207Z,1
2018-01-04T01:14:18.973Z,0.6
2018-01-04T01:16:19.296Z,0.4
2018-01-04T01:18:19.133Z,0.5
2018-01-04T01:20:18.881Z,0.5
2018-01-04T01:22:18.612Z,0.9
2018-01-04T01:24:19.372Z,0.9
2018-01-04T01:26:19.393Z,0.5
2018-01-04T01:28:19.118Z,0.4
2018-01-04T01:30:18.884Z,0.6
2018-01-04T01:32:18.602Z,0.5
2018-01-04T01:34:19.359Z,1.1
2018-01-04T01:36:19.101Z,0.4
2018-01-04T01:38:18.852Z,0.7
2018-01-04T01:40:19.102Z,0.9
2018-01-04T01:42:18.862Z,0.8
2018-01-04T01:44:18.624Z,0.7
2018-01-04T01:46:18.992Z,0.8
2018-01-04T01:48:18.745Z,0.7
2018-01-04T01:50:18.493Z,0.8
2018-01-04T01:52:19.253Z,0.7
2018-01-04T01:54:19.039Z,0.7
2018-01-04T01:56:18.639Z,0.5
2018-01-04T01:58:19.385Z,1.1
2018-01-04T02:00:19.170Z,1
2018-01-04T02:02:18.939Z,0.6
2018-01-04T02:04:18.691Z,1.1
2018-01-04T02:06:19.200Z,0.6
2018-01-04T02:08:18.963Z,0.5
2018-01-04T02:10:19.273Z,1.2
2018-01-04T02:12:19.037Z,1.1
2018-01-04T02:14:18.798Z,0.8
2018-01-04T02:16:18.962Z,0.7
2018-01-04T02:18:18.793Z,1
2018-01-04T02:20:18.575Z,0.7
2018-01-04T02:22:19.319Z,0.6
2018-01-04T02:24:19.061Z,1.1
2018-01-04T02:26:19.097Z,0.9
2018-01-04T02:28:18.866Z,0.8
2018-01-04T02:30:18.642Z,0.8
2018-01-04T02:32:19.398Z,0.6
2018-01-04T02:34:19.145Z,0.7
2018-01-04T02:36:19.287Z,0.7
2018-01-04T02:38:19.025Z,0.8
2018-01-04T02:40:19.236Z,0.7
2018-01-04T02:42:18.975Z,1.2
2018-01-04T02:44:18.742Z,1.4
2018-01-04T02:46:18.833Z,0.6
2018-01-04T02:48:18.605Z,1.1
2018-01-04T02:50:19.368Z,0.9
2018-01-04T02:52:19.162Z,0.6
2018-01-04T02:54:18.912Z,0.5
2018-01-04T02:56:18.909Z,0.6
2018-01-04T02:58:18.671Z,0.3
2018-01-04T03:00:19.411Z,0.6
2018-01-04T03:02:19.180Z,0.6
2018-01-04T03:04:18.965Z,1
2018-01-04T03:06:18.710Z,0.5
2018-01-04T03:08:19.475Z,0.8
2018-01-04T03:10:18.655Z,0.6
2018-01-04T03:12:19.397Z,0.8
2018-01-04T03:14:19.163Z,0.5
2018-01-04T03:16:18.663Z,0.9
2018-01-04T03:18:18.495Z,0.6
2018-01-04T03:20:19.264Z,0.8
2018-01-04T03:22:19.035Z,0.5
2018-01-04T03:24:18.815Z,0.4
2018-01-04T03:26:18.811Z,0.3
2018-01-04T03:28:18.550Z,0.2
2018-01-04T03:30:19.311Z,0.5
2018-01-04T03:32:19.055Z,0.9
2018-01-04T03:34:18.784Z,0.8
2018-01-04T03:36:18.907Z,0.5
2018-01-04T03:38:18.652Z,0.4
2018-01-04T03:40:18.865Z,0.3
2018-01-04T03:42:18.617Z,0.9
2018-01-04T03:44:19.379Z,0.4
2018-01-04T03:46:19.466Z,0.4
2018-01-04T03:48:19.246Z,0.4
2018-01-04T03:50:19.039Z,0.9
2018-01-04T03:52:18.798Z,0.7
2018-01-04T03:54:18.577Z,0.2
2018-01-04T03:56:19.139Z,1
2018-01-04T03:58:18.876Z,0.4
2018-01-04T04:00:18.698Z,0.4
2018-01-04T04:02:19.466Z,0.6
2018-01-04T04:04:19.229Z,0.3
2018-01-04T04:06:19.314Z,0.7
2018-01-04T04:08:19.053Z,0.5
2018-01-04T04:10:19.304Z,0.4
2018-01-04T04:12:19.060Z,0.5
2018-01-04T04:14:18.822Z,0.7
2018-01-04T04:16:18.711Z,0.9
2018-01-04T04:18:18.551Z,0.5
2018-01-04T04:20:19.357Z,0.8
2018-01-04T04:22:19.116Z,0.7
2018-01-04T04:24:18.884Z,0.8
2018-01-04T04:26:18.950Z,0.6
2018-01-04T04:28:18.712Z,0.5
2018-01-04T04:30:19.471Z,0.4
2018-01-04T04:32:19.026Z,0.6
2018-01-04T04:34:18.798Z,0.5
2018-01-04T04:36:19.355Z,0.3
2018-01-04T04:38:19.113Z,0.7
2018-01-04T04:40:19.377Z,0.7
2018-01-04T04:42:19.139Z,0.4
2018-01-04T04:44:18.880Z,0.8
2018-01-04T04:46:18.694Z,0.5
2018-01-04T04:48:19.439Z,0.6
2018-01-04T04:50:19.181Z,0.7
2018-01-04T04:52:18.746Z,0.6
2018-01-04T04:54:18.499Z,0.6
2018-01-04T04:56:18.516Z,0.5
2018-01-04T04:58:19.261Z,0.3
2018-01-04T05:00:19.059Z,0.5
2018-01-04T05:02:18.797Z,0.3
2018-01-04T05:04:18.523Z,0.6
2018-01-04T05:06:18.675Z,0.7
2018-01-04T05:08:19.429Z,0.5
2018-01-04T05:10:18.670Z,0.5
2018-01-04T05:12:19.429Z,1.1
2018-01-04T05:14:19.153Z,0.7
2018-01-04T05:16:19.373Z,0.4
2018-01-04T05:18:19.174Z,1
2018-01-04T05:20:18.931Z,0.7
2018-01-04T05:22:18.661Z,0.5
2018-01-04T05:24:19.417Z,1.2
2018-01-04T05:26:18.549Z,0.9
2018-01-04T05:28:19.296Z,0.8
2018-01-04T05:30:19.067Z,0.8
2018-01-04T05:32:18.793Z,1.2
2018-01-04T05:34:18.559Z,0.9
2018-01-04T05:36:19.101Z,0.6
2018-01-04T05:38:18.869Z,0.5
2018-01-04T05:40:19.068Z,1.5
2018-01-04T05:42:18.793Z,0.7
2018-01-04T05:44:18.535Z,0.7
2018-01-04T05:46:18.733Z,0.9
2018-01-04T05:48:18.498Z,0.6
2018-01-04T05:50:19.296Z,0.9
2018-01-04T05:52:19.059Z,0.8
2018-01-04T05:54:18.800Z,0.6
2018-01-04T05:56:19.369Z,0.6
2018-01-04T05:58:19.106Z,0.7
2018-01-04T06:00:18.871Z,0.7
2018-01-04T06:02:18.616Z,0.8
2018-01-04T06:04:19.367Z,1.3
2018-01-04T06:06:18.938Z,0.9
2018-01-04T06:08:18.676Z,0.9
2018-01-04T06:10:18.890Z,1.2
2018-01-04T06:12:19.396Z,1.4
2018-01-04T06:14:19.122Z,0.5
2018-01-04T06:16:18.661Z,0.4
2018-01-04T06:18:18.481Z,0.7
2018-01-04T06:20:19.263Z,0.7
2018-01-04T06:22:19.002Z,0.7
2018-01-04T06:24:18.749Z,0.9
2018-01-04T06:26:19.353Z,1.6
2018-01-04T06:28:19.111Z,1.1
2018-01-04T06:30:18.894Z,1
2018-01-04T06:32:18.665Z,0.7
2018-01-04T06:34:19.409Z,0.5
2018-01-04T06:36:18.887Z,0.3
2018-01-04T06:38:18.618Z,0.5
2018-01-04T06:40:18.834Z,0.7
2018-01-04T06:42:18.584Z,1
2018-01-04T06:44:19.336Z,0.3
2018-01-04T06:46:18.888Z,1.2
2018-01-04T06:48:18.629Z,0.7
2018-01-04T06:50:19.372Z,0.9
2018-01-04T06:52:19.049Z,0.8
2018-01-04T06:54:18.782Z,1.2
2018-01-04T06:56:18.890Z,0.6
2018-01-04T06:58:18.636Z,0.7
2018-01-04T07:00:19.421Z,0.6
2018-01-04T07:02:19.188Z,0.4
2018-01-04T07:04:18.936Z,1
2018-01-04T07:06:18.551Z,0.8
2018-01-04T07:08:19.296Z,0.5
2018-01-04T07:10:19.472Z,0.7
2018-01-04T07:12:19.207Z,0.5
2018-01-04T07:14:18.931Z,1
2018-01-04T07:16:19.454Z,0.7
2018-01-04T07:18:19.288Z,0.6
2018-01-04T07:20:19.060Z,0.7
2018-01-04T07:22:18.808Z,0.4
2018-01-04T07:24:18.566Z,1
2018-01-04T07:26:18.686Z,0.9
2018-01-04T07:28:19.462Z,0.6
2018-01-04T07:30:19.225Z,0.7
2018-01-04T07:32:18.981Z,0.7
2018-01-04T07:34:18.738Z,0.7
2018-01-04T07:36:19.243Z,0.5
2018-01-04T07:38:18.998Z,0.6
2018-01-04T07:40:19.225Z,0.9
2018-01-04T07:42:18.991Z,1.1
2018-01-04T07:44:18.713Z,0.7
2018-01-04T07:46:19.024Z,0.9
2018-01-04T07:48:18.754Z,1.2
2018-01-04T07:50:18.525Z,1
2018-01-04T07:52:19.277Z,0.9
2018-01-04T07:54:19.043Z,0.7
2018-01-04T07:56:18.554Z,1.2
2018-01-04T07:58:19.302Z,1.7
2018-01-04T08:00:19.089Z,0.8
2018-01-04T08:02:18.835Z,1
2018-01-04T08:04:18.580Z,0.6
2018-01-04T08:06:19.301Z,0.7
2018-01-04T08:08:19.047Z,0.9
2018-01-04T08:10:19.268Z,0.9
2018-01-04T08:12:19.002Z,0.7
2018-01-04T08:14:18.779Z,1.1
2018-01-04T08:16:19.222Z,1
2018-01-04T08:18:19.027Z,0.8
2018-01-04T08:20:18.811Z,1.1
2018-01-04T08:22:18.581Z,0.9
2018-01-04T08:24:19.322Z,0.8
2018-01-04T08:26:19.389Z,0.9
2018-01-04T08:28:19.156Z,1.6
2018-01-04T08:30:18.935Z,1
2018-01-04T08:32:18.684Z,0.7
2018-01-04T08:34:19.427Z,1.2
2018-01-04T08:36:18.946Z,0.6
2018-01-04T08:38:18.693Z,1.4
2018-01-04T08:40:18.912Z,2
2018-01-04T08:42:18.651Z,1.1
2018-01-04T08:44:19.403Z,1.2
2018-01-04T08:46:18.952Z,0.9
2018-01-04T08:48:18.702Z,0.8
2018-01-04T08:50:19.449Z,1.7
2018-01-04T08:52:19.216Z,0.9
2018-01-04T08:54:18.967Z,1.1
2018-01-04T08:56:19.448Z,1.1
2018-01-04T08:58:19.225Z,1.3
2018-01-04T09:00:19.042Z,1
2018-01-04T09:02:18.822Z,1.3
2018-01-04T09:04:18.573Z,1.6
2018-01-04T09:06:19.034Z,1.2
2018-01-04T09:08:18.798Z,1.5
2018-01-04T09:10:19.049Z,1.3
2018-01-04T09:12:18.813Z,1.1
2018-01-04T09:14:18.578Z,1.2
2018-01-04T09:16:19.172Z,0.7
2018-01-04T09:18:19.019Z,0.7
2018-01-04T09:20:18.770Z,1.1
2018-01-04T09:22:18.517Z,1
2018-01-04T09:24:19.283Z,1.6
2018-01-04T09:26:19.292Z,1.4
2018-01-04T09:28:19.029Z,1.4
2018-01-04T09:30:18.796Z,1.1
2018-01-04T09:32:19.307Z,1.9
2018-01-04T09:34:19.054Z,0.8
2018-01-04T09:36:19.124Z,0.6
2018-01-04T09:38:18.873Z,1.6
2018-01-04T09:40:19.103Z,1.5
2018-01-04T09:42:18.867Z,1.5
2018-01-04T09:44:18.639Z,1.9
2018-01-04T09:46:19.230Z,1.5
2018-01-04T09:48:18.969Z,0.8
2018-01-04T09:50:18.762Z,1.2
2018-01-04T09:52:18.504Z,1.1
2018-01-04T09:54:19.269Z,1.8
2018-01-04T09:56:18.580Z,1.4
2018-01-04T09:58:19.347Z,1.7
2018-01-04T10:00:19.144Z,2.1
2018-01-04T10:02:18.894Z,2.2
2018-01-04T10:04:18.643Z,1.4
2018-01-04T10:06:18.734Z,2.2
2018-01-04T10:08:18.493Z,1.6
2018-01-04T10:10:18.729Z,1.2
2018-01-04T10:12:19.488Z,1.5
2018-01-04T10:14:19.249Z,1.8
2018-01-04T10:16:19.269Z,1
2018-01-04T10:18:19.108Z,0.8
2018-01-04T10:20:18.882Z,1.7
2018-01-04T10:22:18.642Z,2
2018-01-04T10:24:19.394Z,1.4
2018-01-04T10:26:19.077Z,1.4
2018-01-04T10:28:18.840Z,2.3
2018-01-04T10:30:18.597Z,1.9
2018-01-04T10:32:19.352Z,1.2
2018-01-04T10:34:19.121Z,2.2
2018-01-04T10:36:19.183Z,1.9
2018-01-04T10:38:18.962Z,1.6
2018-01-04T10:40:19.175Z,2.8
2018-01-04T10:42:18.921Z,1.7
2018-01-04T10:44:18.683Z,2
2018-01-04T10:46:18.821Z,1.2
2018-01-04T10:48:18.611Z,1.4
2018-01-04T10:50:19.418Z,1.7
2018-01-04T10:52:19.196Z,1
2018-01-04T10:54:18.970Z,1.7
2018-01-04T10:56:19.191Z,1.2
2018-01-04T10:58:18.950Z,1.4
2018-01-04T11:00:18.733Z,1.3
2018-01-04T11:02:18.510Z,1.7
2018-01-04T11:04:19.282Z,1.8
2018-01-04T11:06:19.299Z,1.7
2018-01-04T11:08:19.053Z,2.1
2018-01-04T11:10:19.423Z,1
2018-01-04T11:12:19.192Z,1.8
2018-01-04T11:14:18.959Z,1.5
2018-01-04T11:16:19.425Z,1.1
2018-01-04T11:18:19.296Z,1.4
2018-01-04T11:20:19.080Z,1.6
2018-01-04T11:22:18.856Z,1.4
2018-01-04T11:24:18.635Z,2.2
2018-01-04T11:26:18.723Z,1.9
2018-01-04T11:28:18.522Z,2.2
2018-01-04T11:30:19.324Z,2.3
2018-01-04T11:32:19.098Z,2.7
2018-01-04T11:34:18.878Z,2.1
2018-01-04T11:36:18.936Z,2.3
2018-01-04T11:38:18.722Z,1.7
2018-01-04T11:40:18.979Z,1.8
2018-01-04T11:42:18.723Z,1.7
2018-01-04T11:44:19.450Z,1.9
2018-01-04T11:46:19.138Z,1.1
2018-01-04T11:48:18.877Z,1.5
2018-01-04T11:50:18.651Z,1.5
2018-01-04T11:52:19.435Z,2
2018-01-04T11:54:19.211Z,2
2018-01-04T11:56:19.319Z,1.8
2018-01-04T11:58:19.069Z,2
2018-01-04T12:00:18.866Z,1.9
2018-01-04T12:02:18.604Z,1.9
2018-01-04T12:04:19.373Z,2.2
2018-01-04T12:06:18.915Z,2
2018-01-04T12:08:18.661Z,1.9
2018-01-04T12:10:18.869Z,1.7
2018-01-04T12:12:18.632Z,2.4
2018-01-04T12:14:19.377Z,2.1
2018-01-04T12:16:18.877Z,2.8
2018-01-04T12:18:18.731Z,2.4
2018-01-04T12:20:19.479Z,1.9
2018-01-04T12:22:19.213Z,1.2
2018-01-04T12:24:18.958Z,1.6
2018-01-04T12:26:19.461Z,1.6
2018-01-04T12:28:19.220Z,1.6
2018-01-04T12:30:19.002Z,2.2
2018-01-04T12:32:18.792Z,1.4
2018-01-04T12:34:18.543Z,1.2
2018-01-04T12:36:18.804Z,2
2018-01-04T12:38:18.557Z,1.8
2018-01-04T12:40:18.745Z,2.3
2018-01-04T12:42:18.490Z,1.9
2018-01-04T12:44:19.252Z,1.5
2018-01-04T12:46:18.867Z,1.9
2018-01-04T12:48:18.638Z,1.8
2018-01-04T12:50:19.457Z,2
2018-01-04T12:52:19.292Z,1.8
2018-01-04T12:54:19.048Z,2
2018-01-04T12:56:19.224Z,1.7
2018-01-04T12:58:18.982Z,1.3
2018-01-04T13:00:18.818Z,1.9
2018-01-04T13:02:18.567Z,2
2018-01-04T13:04:19.391Z,1.2
2018-01-04T13:06:18.975Z,1.4
2018-01-04T13:08:18.753Z,1.6
2018-01-04T13:10:18.968Z,1.8
2018-01-04T13:12:18.743Z,1.7
2018-01-04T13:14:18.506Z,2.7
2018-01-04T13:16:19.160Z,1.8
2018-01-04T13:18:19.007Z,2
2018-01-04T13:20:18.779Z,1.7
2018-01-04T13:22:18.536Z,1.9
2018-01-04T13:24:19.293Z,2.4
2018-01-04T13:26:19.407Z,1.8
2018-01-04T13:28:19.144Z,1.9
2018-01-04T13:30:18.889Z,2.5
2018-01-04T13:32:18.630Z,1.3
2018-01-04T13:34:19.387Z,1.5
2018-01-04T13:36:19.424Z,2
2018-01-04T13:38:19.170Z,1.3
2018-01-04T13:40:19.444Z,1.4
2018-01-04T13:42:19.238Z,2.5
2018-01-04T13:44:18.980Z,2.1
2018-01-04T13:46:19.006Z,2.4
2018-01-04T13:48:18.777Z,1.7
2018-01-04T13:50:18.714Z,2.1
2018-01-04T13:52:19.476Z,1.7
2018-01-04T13:54:19.226Z,3
2018-01-04T13:56:18.844Z,2.4
2018-01-04T13:58:18.590Z,1.9
2018-01-04T14:00:19.339Z,1.7
2018-01-04T14:02:19.091Z,2.4
2018-01-04T14:04:18.858Z,1.6
2018-01-04T14:06:19.107Z,1.5
2018-01-04T14:08:18.852Z,1.6
2018-01-04T14:10:19.059Z,1.3
2018-01-04T14:12:18.821Z,1.2
2018-01-04T14:14:18.613Z,1.8
2018-01-04T14:16:19.179Z,2.1
2018-01-04T14:18:19.016Z,1.4
2018-01-04T14:20:18.785Z,2.2
2018-01-04T14:22:18.552Z,1.4
2018-01-04T14:24:19.326Z,2
2018-01-04T14:26:19.313Z,2
2018-01-04T14:28:19.094Z,2.1
2018-01-04T14:30:18.882Z,1.8
2018-01-04T14:32:18.617Z,1.6
2018-01-04T14:34:19.381Z,1.2
2018-01-04T14:36:19.412Z,1.9
2018-01-04T14:38:19.150Z,1.3
2018-01-04T14:40:19.353Z,1.2
2018-01-04T14:42:19.137Z,1.6
2018-01-04T14:44:18.923Z,1.3
2018-01-04T14:46:18.929Z,2.1
2018-01-04T14:48:18.698Z,1.6
2018-01-04T14:50:19.464Z,1.5
2018-01-04T14:52:19.229Z,2.2
2018-01-04T14:54:18.999Z,1.4
2018-01-04T14:56:18.525Z,2.5
2018-01-04T14:58:19.277Z,1.8
2018-01-04T15:00:19.066Z,2.9
2018-01-04T15:02:18.896Z,1.7
2018-01-04T15:04:18.659Z,2.4
2018-01-04T15:06:18.721Z,2.7
2018-01-04T15:08:19.489Z,1.5
2018-01-04T15:10:18.746Z,1.9
2018-01-04T15:12:18.515Z,2.6
2018-01-04T15:14:19.259Z,1.9
2018-01-04T15:16:19.362Z,7.4
2018-01-04T15:18:19.197Z,8.2
2018-01-04T15:20:18.929Z,4.6
2018-01-04T15:22:18.684Z,5.1
2018-01-04T15:24:19.433Z,3.2
2018-01-04T15:26:19.467Z,2.8
2018-01-04T15:28:19.244Z,3.2
2018-01-04T15:30:19.062Z,3.6
2018-01-04T15:32:18.858Z,3.1
2018-01-04T15:34:18.692Z,2.4
2018-01-04T15:36:19.331Z,1.7
2018-01-04T15:38:19.091Z,2.5
2018-01-04T15:40:19.343Z,2.3
2018-01-04T15:42:19.110Z,3.4
2018-01-04T15:44:18.850Z,2.6
2018-01-04T15:46:18.522Z,2.8
2018-01-04T15:48:19.280Z,2.7
2018-01-04T15:50:19.046Z,3.3
2018-01-04T15:52:18.836Z,3.7
2018-01-04T15:54:18.687Z,2.7
2018-01-04T15:56:19.285Z,3.2
2018-01-04T15:58:19.060Z,3.6
2018-01-04T16:00:18.887Z,2.7
2018-01-04T16:02:18.644Z,2.4
2018-01-04T16:04:19.413Z,2.2
2018-01-04T16:06:19.447Z,3
2018-01-04T16:08:19.198Z,2.1
2018-01-04T16:10:19.428Z,2.7
2018-01-04T16:12:19.188Z,2.1
2018-01-04T16:14:18.965Z,2
2018-01-04T16:16:19.015Z,1.7
2018-01-04T16:18:18.842Z,1.9
2018-01-04T16:20:18.586Z,2.3
2018-01-04T16:22:19.346Z,2.6
2018-01-04T16:24:19.080Z,2.8
2018-01-04T16:26:19.110Z,2.3
2018-01-04T16:28:18.873Z,3.7
2018-01-04T16:30:18.643Z,2.8
2018-01-04T16:32:19.387Z,2.4
2018-01-04T16:34:19.146Z,2.6
2018-01-04T16:36:18.738Z,2.6
2018-01-04T16:38:18.503Z,2.8
2018-01-04T16:40:18.717Z,2.8
2018-01-04T16:42:19.473Z,1.3
2018-01-04T16:44:19.223Z,3.5
2018-01-04T16:46:18.832Z,2.6
2018-01-04T16:48:18.619Z,3.3
2018-01-04T16:50:19.385Z,2.4
2018-01-04T16:52:19.124Z,2.7
2018-01-04T16:54:18.862Z,2.7
2018-01-04T16:56:18.954Z,3.9
2018-01-04T16:58:18.712Z,3.1
2018-01-04T17:00:19.475Z,4.4
2018-01-04T17:02:19.227Z,3.4
2018-01-04T17:04:18.976Z,3.2
2018-01-04T17:06:18.484Z,3.2
2018-01-04T17:08:19.249Z,2.7
2018-01-04T17:10:18.524Z,2
2018-01-04T17:12:19.277Z,2.6
2018-01-04T17:14:19.039Z,3
2018-01-04T17:16:19.098Z,3
2018-01-04T17:18:18.908Z,2
2018-01-04T17:20:18.669Z,2.6
2018-01-04T17:22:19.400Z,3
2018-01-04T17:24:19.150Z,3.2
2018-01-04T17:26:19.176Z,2.4
2018-01-04T17:28:18.936Z,2.2
2018-01-04T17:30:18.716Z,2.6
2018-01-04T17:32:18.480Z,2.1
2018-01-04T17:34:19.224Z,3
2018-01-04T17:36:18.805Z,3.5
2018-01-04T17:38:18.572Z,2.7
2018-01-04T17:40:18.778Z,1.8
2018-01-04T17:42:18.537Z,1.9
2018-01-04T17:44:19.264Z,2.8
2018-01-04T17:46:19.280Z,2.4
2018-01-04T17:48:19.010Z,3.3
2018-01-04T17:50:18.808Z,2.7
2018-01-04T17:52:18.653Z,2.7
2018-01-04T17:54:19.440Z,2.2
2018-01-04T17:56:19.163Z,2.9
2018-01-04T17:58:18.937Z,2.1
2018-01-04T18:00:18.706Z,2.9
2018-01-04T18:02:19.460Z,2.2
2018-01-04T18:04:19.208Z,2.3
2018-01-04T18:06:18.772Z,2.1
2018-01-04T18:08:18.511Z,2.7
2018-01-04T18:10:18.689Z,1.6
2018-01-04T18:12:19.457Z,2.6
2018-01-04T18:14:19.235Z,2.4
2018-01-04T18:16:18.773Z,1.5
2018-01-04T18:18:18.581Z,2.3
2018-01-04T18:20:19.326Z,2.3
2018-01-04T18:22:19.108Z,2.6
2018-01-04T18:24:18.889Z,2.5
2018-01-04T18:26:18.991Z,2.4
2018-01-04T18:28:18.716Z,2.9
2018-01-04T18:30:18.508Z,2.3
2018-01-04T18:32:19.277Z,2.7
2018-01-04T18:34:19.006Z,2
2018-01-04T18:36:19.205Z,2.5
2018-01-04T18:38:18.944Z,2
2018-01-04T18:40:19.200Z,2.2
2018-01-04T18:42:18.946Z,2.6
2018-01-04T18:44:18.715Z,1.9
2018-01-04T18:46:18.811Z,2.6
2018-01-04T18:48:18.554Z,1.4
2018-01-04T18:50:19.325Z,3.1
2018-01-04T18:52:18.593Z,2.3
2018-01-04T18:54:19.345Z,1.8
2018-01-04T18:56:18.887Z,2.8
2018-01-04T18:58:18.646Z,2.3
2018-01-04T19:00:19.410Z,2.2
2018-01-04T19:02:19.183Z,1.8
2018-01-04T19:04:18.912Z,1.9
2018-01-04T19:06:18.538Z,1.4
2018-01-04T19:08:19.306Z,1.2
2018-01-04T19:10:18.519Z,1.6
2018-01-04T19:12:19.281Z,2.8
2018-01-04T19:14:19.022Z,1.4
2018-01-04T19:16:19.268Z,1.4
2018-01-04T19:18:19.098Z,2.2
2018-01-04T19:20:18.857Z,1.9
2018-01-04T19:22:18.610Z,1.6
2018-01-04T19:24:19.336Z,1.9
2018-01-04T19:26:19.414Z,4.4
2018-01-04T19:28:19.206Z,2.5
2018-01-04T19:30:18.991Z,2.1
2018-01-04T19:32:18.760Z,1.6
2018-01-04T19:34:18.517Z,1.4
2018-01-04T19:36:18.735Z,2.1
2018-01-04T19:38:18.511Z,1.8
2018-01-04T19:40:18.776Z,1.8
2018-01-04T19:42:18.530Z,2.5
2018-01-04T19:44:19.361Z,1.5
2018-01-04T19:46:19.028Z,1.7
2018-01-04T19:48:18.777Z,2.2
2018-01-04T19:50:18.537Z,1.1
2018-01-04T19:52:19.293Z,1.5
2018-01-04T19:54:19.039Z,1.4
2018-01-04T19:56:19.062Z,1.6
2018-01-04T19:58:18.821Z,1.8
2018-01-04T20:00:18.605Z,2.1
2018-01-04T20:02:19.192Z,1.8
2018-01-04T20:04:18.952Z,0.8
2018-01-04T20:06:18.995Z,1
2018-01-04T20:08:18.762Z,1.6
2018-01-04T20:10:19.053Z,1.7
2018-01-04T20:12:18.808Z,1.4
2018-01-04T20:14:18.551Z,1.6
2018-01-04T20:16:18.669Z,1.3
2018-01-04T20:18:18.515Z,1.1
2018-01-04T20:20:19.252Z,1.5
2018-01-04T20:22:19.005Z,1.9
2018-01-04T20:24:18.768Z,1.5
2018-01-04T20:26:18.824Z,1.9
2018-01-04T20:28:18.617Z,1.1
2018-01-04T20:30:19.375Z,0.9
2018-01-04T20:32:19.141Z,1.3
2018-01-04T20:34:18.879Z,1.2
2018-01-04T20:36:18.851Z,1.2
2018-01-04T20:38:18.625Z,1.3
2018-01-04T20:40:18.827Z,1.1
2018-01-04T20:42:18.580Z,1.5
2018-01-04T20:44:19.340Z,1.2
2018-01-04T20:46:18.848Z,1
2018-01-04T20:48:18.596Z,1.3
2018-01-04T20:50:19.362Z,1.2
2018-01-04T20:52:19.115Z,1.3
2018-01-04T20:54:18.862Z,1.9
2018-01-04T20:56:18.880Z,1.7
2018-01-04T20:58:18.636Z,0.9
2018-01-04T21:00:19.439Z,1
2018-01-04T21:02:19.185Z,1.6
2018-01-04T21:04:18.924Z,1.3
2018-01-04T21:06:19.053Z,0.9
2018-01-04T21:08:18.784Z,0.5
2018-01-04T21:10:19.015Z,0.6
2018-01-04T21:12:18.755Z,0.6
2018-01-04T21:14:18.510Z,1
2018-01-04T21:16:18.491Z,0.6
2018-01-04T21:18:19.292Z,0.6
2018-01-04T21:20:19.171Z,0.6
2018-01-04T21:22:18.930Z,1
2018-01-04T21:24:18.660Z,0.7
2018-01-04T21:26:19.156Z,0.7
2018-01-04T21:28:18.916Z,0.6
2018-01-04T21:30:18.680Z,0.7
2018-01-04T21:32:19.469Z,1
2018-01-04T21:34:19.220Z,0.7
2018-01-04T21:36:19.320Z,0.7
2018-01-04T21:38:19.069Z,0.7
2018-01-04T21:40:19.257Z,0.7
2018-01-04T21:42:19.006Z,0.5
2018-01-04T21:44:18.740Z,0.7
2018-01-04T21:46:18.933Z,0.3
2018-01-04T21:48:18.696Z,0.6
2018-01-04T21:50:19.459Z,0.4
2018-01-04T21:52:19.203Z,0.6
2018-01-04T21:54:18.963Z,0.5
2018-01-04T21:56:19.243Z,0.4
2018-01-04T21:58:18.995Z,0.5
2018-01-04T22:00:18.826Z,0.4
2018-01-04T22:02:18.571Z,0.7
2018-01-04T22:04:19.346Z,0.4
2018-01-04T22:06:18.868Z,0.6
2018-01-04T22:08:18.713Z,0.7
2018-01-04T22:10:18.931Z,0.6
2018-01-04T22:12:18.702Z,0.5
2018-01-04T22:14:19.451Z,0.4
2018-01-04T22:16:18.469Z,0.4
2018-01-04T22:18:19.282Z,0.9
2018-01-04T22:20:19.051Z,0.8
2018-01-04T22:22:18.817Z,0.8
2018-01-04T22:24:18.539Z,0.5
2018-01-04T22:26:19.085Z,0.4
2018-01-04T22:28:18.833Z,0.9
2018-01-04T22:30:18.574Z,0.5
2018-01-04T22:32:19.292Z,0.4
2018-01-04T22:34:19.060Z,0.6
2018-01-04T22:36:19.237Z,0.6
2018-01-04T22:38:19.017Z,0.6
2018-01-04T22:40:19.265Z,0.9
2018-01-04T22:42:19.335Z,0.9
2018-01-04T22:44:19.125Z,0.7
2018-01-04T22:46:19.177Z,0.7
2018-01-04T22:48:18.938Z,1
2018-01-04T22:50:18.699Z,1.1
2018-01-04T22:52:19.463Z,0.7
2018-01-04T22:54:19.232Z,0.8
2018-01-04T22:56:19.300Z,0.6
2018-01-04T22:58:19.044Z,1
2018-01-04T23:00:18.811Z,0.6
2018-01-04T23:02:18.552Z,1
2018-01-04T23:04:19.311Z,0.5
2018-01-04T23:06:18.835Z,1
2018-01-04T23:08:18.601Z,0.8
2018-01-04T23:10:18.805Z,0.7
2018-01-04T23:12:18.569Z,0.8
2018-01-04T23:14:19.325Z,1
2018-01-04T23:16:18.833Z,0.9
2018-01-04T23:18:18.673Z,0.6
2018-01-04T23:20:19.465Z,0.7
2018-01-04T23:22:19.229Z,0.4
2018-01-04T23:24:18.992Z,0.9
2018-01-04T23:26:19.060Z,1
2018-01-04T23:28:18.842Z,0.9
2018-01-04T23:30:18.629Z,0.7
2018-01-04T23:32:19.389Z,0.5
2018-01-04T23:34:19.149Z,0.7
2018-01-04T23:36:19.192Z,0.7
2018-01-04T23:38:18.965Z,1
2018-01-04T23:40:19.225Z,0.8
2018-01-04T23:42:18.969Z,0.8
2018-01-04T23:44:18.716Z,1
2018-01-04T23:46:19.295Z,0.8
2018-01-04T23:48:19.037Z,0.8
2018-01-04T23:50:18.818Z,0.9
2018-01-04T23:52:18.612Z,0.8
2018-01-04T23:54:19.359Z,1.4
2018-01-04T23:56:18.880Z,0.8
2018-01-04T23:58:18.654Z,1.2
